Time;durP1;ratioP1;P1;durP2;ratioP2;P2;SDS_P1;SDS_P2;PMS_P1;PMS_P2;Temp;Humidity;BMP_temperature;BMP_pressure;BME280_temperature;BME280_humidity;BME280_pressure;Samples;Min_cycle;Max_cycle;Signal;HPM_P1;HPM_P2
2022/11/15 00:01:29;;;;;;;65.60;29.73;;;;;;;7.88;100.00;99202.13;5107944;28;20048;-94
2022/11/15 00:04:00;;;;;;;59.60;27.80;;;;;;;7.85;100.00;99208.34;5108961;28;20047;-95
2022/11/15 00:06:26;;;;;;;57.80;25.02;;;;;;;7.84;100.00;99205.69;5108008;28;20071;-95
2022/11/15 00:08:53;;;;;;;54.67;23.85;;;;;;;7.99;100.00;99219.66;5108706;28;20044;-95
2022/11/15 00:11:19;;;;;;;51.47;23.02;;;;;;;7.91;100.00;99200.31;5108307;28;20069;-94
2022/11/15 00:13:45;;;;;;;51.92;24.38;;;;;;;8.05;100.00;99233.75;5108314;28;20072;-94
2022/11/15 00:16:11;;;;;;;59.97;26.58;;;;;;;7.89;100.00;99198.56;5108535;28;20052;-95
2022/11/15 00:18:37;;;;;;;60.08;28.33;;;;;;;7.86;100.00;99202.13;5108370;28;20133;-95
2022/11/15 00:21:07;;;;;;;60.08;25.67;;;;;;;7.84;100.00;99190.69;5108897;28;20048;-96
2022/11/15 00:23:33;;;;;;;;;;;;;;;8.07;100.00;99230.19;5108382;28;20052;-94
2022/11/15 00:25:59;;;;;;;71.60;24.35;;;;;;;7.97;100.00;99218.78;5108190;28;19920;-96
2022/11/15 00:28:25;;;;;;;62.42;24.25;;;;;;;7.86;100.00;99191.53;5107504;28;20052;-95
2022/11/15 00:30:52;;;;;;;80.40;24.02;;;;;;;7.84;100.00;99201.28;5107313;28;20048;-95
2022/11/15 00:33:18;;;;;;;69.97;22.02;;;;;;;7.81;100.00;99204.81;5106731;28;20059;-95
2022/11/15 00:35:44;;;;;;;64.70;21.38;;;;;;;7.81;100.00;99212.78;5106927;28;20141;-96
2022/11/15 00:38:12;;;;;;;60.95;21.40;;;;;;;7.84;100.00;99225.09;5107212;28;20114;-95
2022/11/15 00:40:38;;;;;;;67.45;24.40;;;;;;;7.77;100.00;99211.03;5107999;28;20048;-94
2022/11/15 00:43:05;;;;;;;87.68;26.38;;;;;;;7.88;100.00;99225.97;5107609;28;20044;-95
2022/11/15 00:45:31;;;;;;;115.20;28.73;;;;;;;7.77;100.00;99211.03;5107761;28;20056;-94
2022/11/15 00:47:58;;;;;;;128.02;29.67;;;;;;;7.96;100.00;99245.31;5108061;28;20044;-96
2022/11/15 00:50:24;;;;;;;110.15;28.60;;;;;;;7.66;100.00;99212.91;5107409;28;20050;-95
2022/11/15 00:52:52;;;;;;;67.03;26.55;;;;;;;7.68;100.00;99210.25;5107256;28;20062;-96
2022/11/15 00:55:22;;;;;;;82.88;26.25;;;;;;;7.65;100.00;99199.66;5106954;28;20044;-94
2022/11/15 00:57:48;;;;;;;65.20;26.52;;;;;;;7.64;100.00;99204.09;5107322;28;20050;-95
2022/11/15 01:00:14;;;;;;;54.80;26.13;;;;;;;7.65;100.00;99200.53;5108383;28;20044;-96
2022/11/15 01:02:41;;;;;;;68.20;26.77;;;;;;;7.85;100.00;99232.16;5107306;28;20044;-95
2022/11/15 01:05:08;;;;;;;143.70;28.35;;;;;;;7.65;100.00;99192.59;5107323;28;20044;-95
2022/11/15 01:07:34;;;;;;;152.43;27.48;;;;;;;7.59;100.00;99190.91;5106751;28;20051;-96
2022/11/15 01:10:00;;;;;;;170.25;27.52;;;;;;;7.55;100.00;99185.66;5106648;28;20115;-95
2022/11/15 01:12:28;;;;;;;138.13;27.30;;;;;;;7.67;100.00;99208.47;5105474;28;20044;-95
2022/11/15 01:14:53;;;;;;;105.28;26.83;;;;;;;7.49;100.00;99189.22;5103930;28;20144;-96
2022/11/15 01:17:20;;;;;;;83.43;25.42;;;;;;;7.45;100.00;99174.25;5105214;28;20048;-96
2022/11/15 01:19:46;;;;;;;56.20;23.90;;;;;;;7.47;100.00;99172.47;5106459;28;20097;-95
2022/11/15 01:22:12;;;;;;;53.13;21.67;;;;;;;7.60;100.00;99197.94;5105981;28;20406;-95
2022/11/15 01:24:38;;;;;;;50.45;19.27;;;;;;;7.53;100.00;99175.06;5106685;28;20044;-94
2022/11/15 01:27:04;;;;;;;51.35;20.30;;;;;;;7.69;100.00;99212.88;5107021;28;20040;-96
2022/11/15 01:29:34;;;;;;;45.08;21.20;;;;;;;7.56;100.00;99185.63;5107034;28;20059;-95
2022/11/15 01:32:03;;;;;;;49.00;18.55;;;;;;;7.61;100.00;99181.19;5107617;28;20055;-95
2022/11/15 01:34:29;;;;;;;42.42;17.52;;;;;;;7.63;100.00;99185.56;5106792;28;20074;-94
2022/11/15 01:36:55;;;;;;;50.28;16.98;;;;;;;7.64;100.00;99176.75;5106387;28;20048;-96
2022/11/15 01:39:21;;;;;;;43.38;17.70;;;;;;;7.60;100.00;99179.41;5106497;28;20047;-95
2022/11/15 01:41:49;;;;;;;52.80;18.75;;;;;;;7.63;100.00;99174.97;5106440;28;20243;-95
2022/11/15 01:44:43;;;;;;;45.38;17.90;;;;;;;7.77;100.00;99208.38;5105927;28;20047;-96
2022/11/15 01:47:14;;;;;;;43.75;17.88;;;;;;;7.60;100.00;99182.06;5107144;28;20044;-95
2022/11/15 01:49:50;;;;;;;64.05;17.70;;;;;;;7.62;100.00;99171.47;5105908;28;20056;-96
2022/11/15 01:52:19;;;;;;;45.25;17.10;;;;;;;7.59;100.00;99172.38;5105397;28;20071;-95
2022/11/15 01:54:46;;;;;;;47.88;17.92;;;;;;;7.64;100.00;99177.63;5107012;28;20048;-94
2022/11/15 01:57:13;;;;;;;46.10;18.70;;;;;;;7.67;100.00;99176.72;5106787;28;20055;-95
2022/11/15 01:59:44;;;;;;;39.33;17.02;;;;;;;7.74;100.00;99181.06;5105940;28;20028;-96
2022/11/15 02:02:10;;;;;;;44.67;16.65;;;;;;;7.70;100.00;99174.03;5107046;28;20044;-96
2022/11/15 02:04:40;;;;;;;43.08;18.80;;;;;;;7.68;100.00;99167.91;5106109;28;20048;-95
2022/11/15 02:07:08;;;;;;;46.40;17.90;;;;;;;7.66;100.00;99159.97;5106394;28;20048;-95
2022/11/15 02:09:36;;;;;;;45.13;17.23;;;;;;;7.72;100.00;99172.25;5106319;28;20044;-96
2022/11/15 02:12:02;;;;;;;46.47;18.80;;;;;;;7.72;100.00;99172.25;5107037;28;20154;-96
2022/11/15 02:14:31;;;;;;;45.17;19.70;;;;;;;7.72;100.00;99174.91;5107187;28;20047;-95
2022/11/15 02:17:08;;;;;;;40.70;17.70;;;;;;;7.75;100.00;99162.53;5106861;28;20044;-95
2022/11/15 02:20:00;;;;;;;41.88;17.33;;;;;;;7.77;100.00;99163.38;5106383;28;20040;-96
2022/11/15 02:22:41;;;;;;;40.25;16.63;;;;;;;7.73;100.00;99158.13;5105866;28;20052;-96
2022/11/15 02:25:31;;;;;;;41.60;17.98;;;;;;;7.61;100.00;99156.47;5102485;28;20048;-96
2022/11/15 02:28:21;;;;;;;50.15;17.30;;;;;;;7.55;100.00;99159.19;5105271;28;20040;-95
2022/11/15 02:30:54;;;;;;;40.80;15.70;;;;;;;7.57;100.00;99168.00;5104858;28;20047;-95
2022/11/15 02:33:33;;;;;;;39.50;15.90;;;;;;;7.69;100.00;99180.22;5105043;28;20036;-95
2022/11/15 02:35:59;;;;;;;;;;;;;;;7.79;100.00;99197.78;5106438;28;20050;-95
2022/11/15 02:38:34;;;;;;;35.25;14.82;;;;;;;7.60;100.00;99162.66;5105306;28;19942;-95
2022/11/15 02:41:04;;;;;;;32.35;14.98;;;;;;;7.59;100.00;99153.84;5106385;28;20055;-94
2022/11/15 02:50:07;;;;;;;41.60;15.27;;;;;;;7.69;100.00;99161.69;5145735;27;20383;-95
2022/11/15 02:52:35;;;;;;;38.45;16.17;;;;;;;7.68;100.00;99152.03;5143374;28;20051;-95
2022/11/15 02:55:02;;;;;;;36.13;14.55;;;;;;;7.76;100.00;99147.50;5144729;28;20059;-94
2022/11/15 02:57:39;;;;;;;44.08;16.48;;;;;;;7.71;100.00;99133.44;5144607;28;20046;-94
2022/11/15 03:00:08;;;;;;;36.53;16.27;;;;;;;7.81;100.00;99153.66;5144873;28;20043;-95
2022/11/15 03:02:48;;;;;;;38.80;16.50;;;;;;;7.87;100.00;99165.94;5145077;28;20043;-96
2022/11/15 03:05:23;;;;;;;40.65;17.15;;;;;;;7.91;100.00;99172.97;5144501;28;20050;-95
2022/11/15 03:07:56;;;;;;;35.33;15.57;;;;;;;7.90;100.00;99179.16;5144529;28;20107;-94
2022/11/15 03:10:30;;;;;;;39.60;16.25;;;;;;;7.68;100.00;99141.44;5145417;28;20048;-94
2022/11/15 03:12:59;;;;;;;33.28;15.98;;;;;;;7.70;100.00;99136.97;5144748;28;20384;-95
2022/11/15 03:15:30;;;;;;;41.75;15.88;;;;;;;7.73;100.00;99145.78;5144260;28;20110;-95
2022/11/15 03:18:01;;;;;;;35.40;14.35;;;;;;;7.68;100.00;99131.72;5143973;28;20050;-94
2022/11/15 03:20:30;;;;;;;36.15;14.82;;;;;;;7.74;100.00;99134.31;5144426;28;20050;-95
2022/11/15 03:23:02;;;;;;;36.42;14.23;;;;;;;7.68;100.00;99144.94;5144418;28;20495;-94
2022/11/15 03:25:30;;;;;;;37.75;14.13;;;;;;;7.68;100.00;99137.00;5144214;28;20492;-95
2022/11/15 03:28:02;;;;;;;37.45;12.55;;;;;;;7.65;100.00;99133.50;5140704;28;20039;-94
2022/11/15 03:30:31;;;;;;;34.17;12.07;;;;;;;7.50;100.00;99130.09;5139622;28;20107;-95
2022/11/15 03:33:00;;;;;;;28.88;12.00;;;;;;;7.45;100.00;99118.69;5141990;28;20054;-94
2022/11/15 03:35:32;;;;;;;41.30;13.25;;;;;;;7.55;100.00;99130.06;5143886;28;20088;-94
2022/11/15 03:38:07;;;;;;;31.85;12.98;;;;;;;7.51;100.00;99115.97;5144662;28;20059;-95
2022/11/15 03:40:39;;;;;;;36.10;13.05;;;;;;;7.57;100.00;99117.72;5144047;28;20070;-96
2022/11/15 03:43:12;;;;;;;34.25;13.43;;;;;;;7.65;100.00;99126.44;5144673;28;20115;-95
2022/11/15 03:45:44;;;;;;;40.72;12.50;;;;;;;7.70;100.00;99107.84;5141044;28;20142;-96
2022/11/15 03:48:14;;;;;;;35.55;12.65;;;;;;;7.68;100.00;99137.00;5140990;28;20134;-96
2022/11/15 03:50:45;;;;;;;36.33;13.15;;;;;;;7.60;100.00;99125.59;5142550;28;20047;-94
2022/11/15 03:53:12;;;;;;;31.52;12.48;;;;;;;7.60;100.00;99115.03;5143296;28;20047;-94
2022/11/15 03:55:39;;;;;;;33.20;13.98;;;;;;;7.62;100.00;99118.53;5143583;28;20051;-95
2022/11/15 03:58:05;;;;;;;62.25;16.45;;;;;;;7.65;100.00;99120.25;5143978;28;20039;-95
2022/11/15 04:00:31;;;;;;;34.47;15.65;;;;;;;7.67;100.00;99116.72;5134404;28;20051;-96
2022/11/15 04:02:58;;;;;;;57.97;17.33;;;;;;;7.69;100.00;99128.16;5130214;28;20047;-94
2022/11/15 04:05:24;;;;;;;69.65;16.25;;;;;;;7.59;100.00;99122.09;5130181;28;20067;-95
2022/11/15 04:07:52;;;;;;;38.97;14.52;;;;;;;7.58;100.00;99130.91;5130154;28;20143;-95
2022/11/15 04:10:18;;;;;;;37.13;13.70;;;;;;;7.60;100.00;99138.84;5129860;28;20048;-95
2022/11/15 04:12:47;;;;;;;46.38;14.30;;;;;;;7.56;100.00;99126.53;5130010;28;20067;-94
2022/11/15 04:15:15;;;;;;;66.03;14.55;;;;;;;7.53;100.00;99132.72;5129310;28;20054;-95
2022/11/15 04:17:43;;;;;;;31.40;13.60;;;;;;;7.49;100.00;99124.84;5130096;28;20073;-93
2022/11/15 04:33:37;;;;;;;28.60;12.27;;;;;;;7.64;100.00;99143.22;6237959;22;1517328;-95
2022/11/15 04:39:08;;;;;;;25.98;12.50;;;;;;;7.57;100.00;99121.22;5188855;27;20377;-95
2022/11/15 04:41:35;;;;;;;32.42;12.80;;;;;;;7.57;100.00;99108.00;5187508;27;20033;-95
2022/11/15 04:44:01;;;;;;;27.63;12.07;;;;;;;7.56;100.00;99105.34;5187207;27;20064;-95
2022/11/15 04:46:27;;;;;;;61.97;16.40;;;;;;;7.59;100.00;99108.00;5187101;27;20114;-95
2022/11/15 04:48:54;;;;;;;61.90;16.88;;;;;;;7.59;100.00;99105.34;5186281;27;20596;-96
2022/11/15 04:51:20;;;;;;;48.83;13.90;;;;;;;7.54;100.00;99113.28;5187460;27;20432;-95
2022/11/15 04:53:46;;;;;;;32.45;11.73;;;;;;;7.64;100.00;99119.41;5187235;27;20495;-96
2022/11/15 04:56:14;;;;;;;87.47;18.65;;;;;;;7.76;100.00;99147.50;5185957;27;20134;-95
2022/11/15 04:58:40;;;;;;;69.43;15.95;;;;;;;7.48;100.00;99101.91;5185826;27;20039;-96
2022/11/15 05:01:07;;;;;;;30.42;13.52;;;;;;;7.50;100.00;99098.34;5184687;27;20042;-95
2022/11/15 05:17:00;;;;;;;25.02;10.07;;;;;;;7.45;100.00;99094.00;6272940;22;20276;-95
2022/11/15 05:19:26;;;;;;;21.77;9.60;;;;;;;7.40;100.00;99092.28;6244136;23;20020;-96
2022/11/15 05:29:33;;;;;;;30.77;11.73;;;;;;;7.48;100.00;99092.22;6004429;24;20144;-96
2022/11/15 05:32:03;;;;;;;26.45;10.43;;;;;;;7.42;100.00;99089.63;5981280;24;20055;-95
2022/11/15 05:34:32;;;;;;;19.95;9.73;;;;;;;7.47;100.00;99094.88;5982732;23;20124;-95
2022/11/15 05:36:59;;;;;;;20.92;9.75;;;;;;;7.66;100.00;99132.63;6143870;23;20028;-96
2022/11/15 05:39:26;;;;;;;18.67;8.05;;;;;;;7.45;100.00;99092.22;6095478;23;20018;-95
2022/11/15 05:41:55;;;;;;;18.98;8.55;;;;;;;7.41;100.00;99080.78;6096336;23;20029;-95
2022/11/15 05:44:26;;;;;;;17.05;7.85;;;;;;;7.40;100.00;99067.59;6094579;23;20029;-96
2022/11/15 05:46:53;;;;;;;16.40;7.13;;;;;;;7.41;100.00;99064.91;6094464;23;20020;-95
2022/11/15 05:49:24;;;;;;;17.73;7.80;;;;;;;7.43;100.00;99062.25;6198943;23;20020;-95
2022/11/15 05:51:52;;;;;;;18.30;8.48;;;;;;;7.47;100.00;99058.69;6240861;23;20114;-93
2022/11/15 05:54:22;;;;;;;14.90;8.27;;;;;;;7.46;100.00;99061.34;6238908;23;20016;-94
2022/11/15 05:56:49;;;;;;;16.95;7.47;;;;;;;7.31;100.00;99059.75;6208114;23;20020;-95
2022/11/15 05:59:16;;;;;;;15.70;7.35;;;;;;;7.25;100.00;99055.38;6210036;23;20414;-93
2022/11/15 06:01:45;;;;;;;15.25;7.43;;;;;;;7.20;100.00;99068.66;6214502;23;20388;-95
2022/11/15 06:04:11;;;;;;;13.43;6.32;;;;;;;7.17;100.00;99076.59;6213308;23;20046;-95
2022/11/15 06:06:39;;;;;;;13.27;6.43;;;;;;;7.13;100.00;99080.16;6211921;23;20020;-94
2022/11/15 06:09:05;;;;;;;12.07;6.43;;;;;;;7.32;100.00;99120.56;6212874;23;20013;-96
2022/11/15 06:11:31;;;;;;;16.42;6.28;;;;;;;7.15;100.00;99115.41;6209229;23;20111;-94
2022/11/15 06:13:57;;;;;;;14.65;7.05;;;;;;;7.39;100.00;99155.78;6212066;23;20021;-94
2022/11/15 06:16:25;;;;;;;17.77;6.82;;;;;;;7.23;100.00;99117.13;6207847;23;20025;-95
2022/11/15 06:18:55;;;;;;;14.85;6.63;;;;;;;7.36;100.00;99138.16;6202635;23;20021;-95
2022/11/15 06:21:21;;;;;;;15.30;6.90;;;;;;;7.31;100.00;99115.31;6202135;23;20021;-96
2022/11/15 06:23:49;;;;;;;14.32;7.10;;;;;;;7.36;100.00;99124.06;6199248;23;20027;-95
2022/11/15 06:26:15;;;;;;;13.25;6.55;;;;;;;7.46;100.00;99138.97;6198634;23;20021;-95
2022/11/15 06:28:41;;;;;;;15.85;7.50;;;;;;;7.51;100.00;99155.69;6198872;23;20080;-96
2022/11/15 06:31:10;;;;;;;16.27;7.30;;;;;;;7.33;100.00;99116.13;6197680;23;20085;-96
2022/11/15 06:33:37;;;;;;;12.90;6.43;;;;;;;7.37;100.00;99129.34;6198961;23;20021;-96
2022/11/15 06:36:04;;;;;;;12.70;6.82;;;;;;;7.40;100.00;99129.31;6198959;23;20021;-95
2022/11/15 06:38:30;;;;;;;16.83;7.07;;;;;;;7.41;100.00;99127.53;6202605;23;20021;-96
2022/11/15 06:41:03;;;;;;;15.95;7.28;;;;;;;7.51;100.00;99123.94;6253265;23;20108;-96
2022/11/15 06:43:29;;;;;;;14.35;6.97;;;;;;;7.52;100.00;99120.38;6202318;23;20020;-96
2022/11/15 06:45:57;;;;;;;16.35;7.55;;;;;;;7.53;100.00;99118.63;6251741;23;20024;-96
2022/11/15 06:48:23;;;;;;;15.35;7.50;;;;;;;7.56;100.00;99127.41;6200016;23;20017;-96
2022/11/15 06:50:51;;;;;;;15.88;7.72;;;;;;;7.53;100.00;99124.78;6251752;23;20084;-95
2022/11/15 06:53:18;;;;;;;17.00;7.90;;;;;;;7.68;100.00;99152.88;6200283;23;20021;-96
2022/11/15 06:55:44;;;;;;;15.88;7.50;;;;;;;7.66;100.00;99127.34;6199807;23;20032;-95
2022/11/15 06:58:11;;;;;;;19.10;8.40;;;;;;;7.69;100.00;99119.34;6199670;23;20021;-96
2022/11/15 07:00:37;;;;;;;23.80;9.48;;;;;;;7.70;100.00;99127.28;6200532;23;20025;-96
2022/11/15 07:03:04;;;;;;;18.52;8.80;;;;;;;7.74;100.00;99118.44;6250376;23;20021;-96
2022/11/15 07:05:30;;;;;;;20.50;7.40;;;;;;;7.81;100.00;99130.69;6199288;23;20071;-95
2022/11/15 07:07:57;;;;;;;18.15;7.93;;;;;;;7.51;100.00;99120.41;6199968;23;20021;-95
2022/11/15 07:10:26;;;;;;;14.40;7.60;;;;;;;7.45;100.00;99131.91;6199931;23;20076;-95
2022/11/15 07:12:55;;;;;;;;;;;;;;;7.57;100.00;99157.41;6199913;23;20017;-94
2022/11/15 07:15:23;;;;;;;;;;;;;;;7.62;100.00;99155.59;6201131;23;19999;-95
2022/11/15 07:17:50;;;;;;;39.83;20.92;;;;;;;7.64;100.00;99151.16;6176343;23;20267;-96
2022/11/15 07:20:17;;;;;;;19.13;8.38;;;;;;;7.46;100.00;99123.09;6175965;23;20444;-96
2022/11/15 07:22:45;;;;;;;14.75;7.97;;;;;;;7.46;100.00;99136.34;6201136;23;20102;-95
2022/11/15 07:25:11;;;;;;;15.38;8.70;;;;;;;7.46;100.00;99141.63;6225696;23;20044;-96
2022/11/15 07:27:37;;;;;;;14.27;8.15;;;;;;;7.40;100.00;99137.25;6175115;23;20379;-95
2022/11/15 07:30:05;;;;;;;12.25;7.28;;;;;;;7.47;100.00;99142.50;6176146;23;20024;-96
2022/11/15 07:32:34;;;;;;;15.07;6.53;;;;;;;7.28;100.00;99126.75;6173868;23;20020;-95
2022/11/15 07:35:00;;;;;;;14.88;6.72;;;;;;;7.26;100.00;99143.53;6175827;23;20040;-94
2022/11/15 07:37:26;;;;;;;18.00;9.23;;;;;;;7.18;100.00;99125.97;6175334;23;20028;-95
2022/11/15 07:39:54;;;;;;;17.33;8.65;;;;;;;7.34;100.00;99136.41;6226138;23;20462;-95
2022/11/15 07:45:25;;;;;;;17.83;9.00;;;;;;;7.46;100.00;99136.34;5084336;27;20387;-95
2022/11/15 07:47:51;;;;;;;16.38;7.45;;;;;;;7.44;100.00;99109.00;5081735;28;20055;-94
2022/11/15 07:50:18;;;;;;;13.35;7.22;;;;;;;7.58;100.00;99117.69;5083074;28;20064;-95
2022/11/15 07:52:47;;;;;;;259.45;106.43;;;;;;;7.64;100.00;99139.69;5083296;28;20045;-95
2022/11/15 07:55:13;;;;;;;53.20;22.85;;;;;;;7.68;100.00;99139.66;5081781;28;20049;-95
2022/11/15 07:57:40;;;;;;;32.92;15.55;;;;;;;7.58;100.00;99128.25;5082473;28;20049;-96
2022/11/15 08:00:09;;;;;;;121.45;51.22;;;;;;;7.61;100.00;99130.91;5084909;28;20048;-95
2022/11/15 08:02:37;;;;;;;19.48;8.77;;;;;;;7.76;100.00;99153.69;5081105;28;20052;-95
2022/11/15 08:05:03;;;;;;;12.13;6.25;;;;;;;7.61;100.00;99135.28;5112545;28;20112;-94
2022/11/15 08:07:30;;;;;;;17.20;9.27;;;;;;;7.68;100.00;99123.78;5113861;28;20048;-95
2022/11/15 08:10:01;;;;;;;10.85;6.07;;;;;;;7.77;100.00;99128.97;5082321;28;20060;-96
2022/11/15 08:12:27;;;;;;;11.10;5.65;;;;;;;7.48;100.00;99120.41;5080464;28;20501;-95
2022/11/15 08:14:53;;;;;;;11.32;6.55;;;;;;;7.40;100.00;99131.94;5083533;28;20041;-95
2022/11/15 08:17:26;;;;;;;11.88;6.60;;;;;;;7.33;100.00;99129.34;5081541;28;20140;-96
2022/11/15 08:19:57;;;;;;;10.70;5.60;;;;;;;7.41;100.00;99123.13;5084486;28;20044;-96
2022/11/15 08:22:23;;;;;;;10.75;5.43;;;;;;;7.60;100.00;99129.13;5085808;28;20072;-94
2022/11/15 08:24:53;;;;;;;12.02;6.55;;;;;;;7.64;100.00;99118.53;5085959;28;20041;-96
2022/11/15 08:27:41;;;;;;;57.40;22.92;;;;;;;7.95;100.00;99145.56;5087479;28;20112;-95
2022/11/15 08:30:12;;;;;;;16.70;8.25;;;;;;;8.04;100.00;99140.16;5120940;28;20041;-95
2022/11/15 08:32:38;;;;;;;15.68;8.70;;;;;;;8.10;100.00;99129.50;5087833;28;20045;-95
2022/11/15 08:35:13;;;;;;;16.08;7.15;;;;;;;7.86;100.00;99109.47;5086832;28;20071;-96
2022/11/15 08:37:44;;;;;;;14.25;7.50;;;;;;;7.87;100.00;99115.63;5117107;28;20056;-94
2022/11/15 08:40:18;;;;;;;14.80;7.55;;;;;;;7.80;100.00;99112.16;5085111;28;20045;-96
2022/11/15 08:42:46;;;;;;;12.25;7.00;;;;;;;7.95;100.00;99124.38;5084143;28;20041;-95
2022/11/15 08:45:12;;;;;;;12.10;7.13;;;;;;;7.78;100.00;99106.00;5115826;28;20069;-95
2022/11/15 08:47:42;;;;;;;14.57;7.28;;;;;;;7.78;100.00;99111.31;5117634;28;20051;-94
2022/11/15 08:50:10;;;;;;;17.40;8.20;;;;;;;7.91;100.00;99109.41;5082946;28;20190;-94
2022/11/15 08:52:39;;;;;;;14.10;7.72;;;;;;;7.75;100.00;99084.88;5116074;28;20059;-95
2022/11/15 08:55:08;;;;;;;16.67;8.18;;;;;;;7.63;100.00;99088.50;5076355;28;20041;-95
2022/11/15 08:57:47;;;;;;;20.60;9.32;;;;;;;7.90;100.00;99100.59;5072193;28;20045;-95
2022/11/15 09:00:14;;;;;;;15.67;8.30;;;;;;;7.84;100.00;99097.13;5069605;28;20049;-94
2022/11/15 09:02:44;;;;;;;18.27;8.63;;;;;;;7.73;100.00;99062.84;5069745;28;20029;-93
2022/11/15 09:05:16;;;;;;;20.13;8.88;;;;;;;7.89;100.00;99095.31;5104012;28;20060;-96
2022/11/15 09:07:42;;;;;;;18.20;9.38;;;;;;;7.74;100.00;99076.06;5067704;28;20120;-95
2022/11/15 09:10:09;;;;;;;17.40;9.30;;;;;;;7.59;100.00;99071.81;5099232;28;20052;-94
2022/11/15 09:12:38;;;;;;;24.02;12.65;;;;;;;7.72;100.00;99071.66;5069957;28;20037;-95
2022/11/15 09:15:05;;;;;;;21.42;9.45;;;;;;;7.85;100.00;99065.34;5067850;28;20069;-95
2022/11/15 09:17:31;;;;;;;21.23;9.60;;;;;;;7.78;100.00;99053.94;5068336;28;20045;-95
2022/11/15 09:20:00;;;;;;;19.15;9.82;;;;;;;7.84;100.00;99055.66;5102387;28;20047;-94
2022/11/15 09:22:28;;;;;;;18.75;9.30;;;;;;;7.77;100.00;99053.97;5099332;28;20083;-95
2022/11/15 09:24:54;;;;;;;19.13;9.93;;;;;;;8.07;100.00;99073.03;5065160;28;20132;-95
2022/11/15 09:27:20;;;;;;;20.58;10.13;;;;;;;8.02;100.00;99043.94;5101692;28;20041;-95
2022/11/15 09:29:46;;;;;;;20.13;10.30;;;;;;;8.22;100.00;99059.63;5101555;28;20051;-94
2022/11/15 09:32:13;;;;;;;15.95;8.38;;;;;;;8.10;100.00;99043.88;5067190;28;20045;-95
2022/11/15 09:34:39;;;;;;;18.63;9.27;;;;;;;8.16;100.00;99049.09;5067938;28;20079;-96
2022/11/15 09:37:08;;;;;;;23.70;11.65;;;;;;;8.28;100.00;99064.81;5066927;28;20045;-95
2022/11/15 09:39:35;;;;;;;15.82;8.40;;;;;;;8.33;100.00;99054.19;5099537;28;20481;-95
2022/11/15 09:42:33;;;;;;;15.48;8.40;;;;;;;8.41;100.00;99060.25;5065460;28;20057;-95
2022/11/15 09:45:14;;;;;;;16.80;8.88;;;;;;;8.52;100.00;99062.75;5065170;28;20084;-95
2022/11/15 09:48:06;;;;;;;15.80;8.63;;;;;;;8.37;100.00;99043.50;5065703;28;20140;-95
2022/11/15 09:50:50;;;;;;;17.15;8.38;;;;;;;8.38;100.00;99033.78;5069783;28;20494;-96
2022/11/15 09:53:39;;;;;;;14.65;7.50;;;;;;;8.25;100.00;99029.56;5108075;28;20045;-96
2022/11/15 09:56:19;;;;;;;20.30;8.50;;;;;;;8.40;100.00;99048.78;5073575;28;20041;-95
2022/11/15 09:58:56;;;;;;;12.88;7.30;;;;;;;8.23;100.00;99024.25;5070358;28;20041;-96
2022/11/15 10:01:40;;;;;;;13.40;6.88;;;;;;;8.29;100.00;99021.53;5064929;28;20072;-93
2022/11/15 10:04:07;;;;;;;14.55;7.70;;;;;;;8.35;100.00;99016.16;5105112;28;20049;-96
2022/11/15 10:07:02;;;;;;;15.38;8.35;;;;;;;8.60;100.00;99018.47;5072171;28;20114;-96
2022/11/15 10:09:36;;;;;;;18.80;9.63;;;;;;;8.67;100.00;99011.28;5069136;28;20054;-95
2022/11/15 10:12:07;;;;;;;16.25;8.55;;;;;;;8.94;100.00;99023.25;5102677;28;20041;-95
2022/11/15 10:14:35;;;;;;;15.60;7.95;;;;;;;8.89;100.00;99022.44;5101209;28;20228;-95
2022/11/15 10:17:41;;;;;;;15.40;7.30;;;;;;;9.12;100.00;99037.97;5068302;28;20041;-95
2022/11/15 10:20:16;;;;;;;13.77;7.50;;;;;;;9.03;100.00;99028.41;5011754;28;20082;-94
2022/11/15 10:22:47;;;;;;;15.00;7.90;;;;;;;8.77;100.00;99000.53;5010959;28;20076;-93
2022/11/15 10:25:20;;;;;;;13.55;7.18;;;;;;;8.64;100.00;98983.06;5010054;28;20069;-95
2022/11/15 10:27:54;;;;;;;13.82;7.05;;;;;;;8.99;100.00;99011.66;5010339;28;20041;-95
2022/11/15 10:30:20;;;;;;;13.75;6.93;;;;;;;8.92;100.00;98982.63;5009912;28;20046;-95
2022/11/15 10:32:50;;;;;;;16.30;7.80;;;;;;;8.96;100.00;98976.38;5009446;28;20054;-96
2022/11/15 10:35:22;;;;;;;14.60;7.07;;;;;;;9.06;100.00;98969.97;5008051;28;20050;-93
2022/11/15 10:37:48;;;;;;;11.75;6.20;;;;;;;9.17;99.87;98961.81;5006874;28;20076;-94
2022/11/15 10:40:18;;;;;;;11.48;6.43;;;;;;;9.12;100.00;98964.56;5007763;28;20046;-96
2022/11/15 10:43:03;;;;;;;11.63;6.50;;;;;;;8.96;100.00;98973.72;5009491;28;20096;-95
2022/11/15 10:45:33;;;;;;;14.82;7.13;;;;;;;9.03;100.00;98978.88;5042740;28;20042;-94
2022/11/15 10:48:19;;;;;;;;;;;;;;;9.16;100.00;98982.19;5010825;28;20045;-96
2022/11/15 10:50:49;;;;;;;13.10;6.97;;;;;;;9.18;100.00;98956.50;5010459;28;20009;-95
2022/11/15 10:53:23;;;;;;;16.80;9.05;;;;;;;9.30;100.00;98941.25;5043538;28;20667;-95
2022/11/15 10:55:53;;;;;;;11.32;6.82;;;;;;;9.18;99.36;98931.75;5044240;28;20523;-96
2022/11/15 10:58:29;;;;;;;21.88;10.80;;;;;;;9.28;99.70;98937.75;5067304;28;20045;-95
2022/11/15 11:00:55;;;;;;;12.60;7.28;;;;;;;9.38;99.19;98920.75;5065675;28;20045;-96
2022/11/15 11:03:37;;;;;;;10.15;6.30;;;;;;;9.29;100.00;98908.53;5066954;28;20044;-96
2022/11/15 11:06:06;;;;;;;12.10;6.30;;;;;;;9.40;97.79;98910.97;5066449;28;20065;-96
2022/11/15 11:08:33;;;;;;;;;;;;;;;9.63;95.61;98940.59;5066922;28;20053;-96
2022/11/15 11:11:01;;;;;;;10.15;5.43;;;;;;;9.50;94.68;98901.03;5066915;28;19916;-95
2022/11/15 11:13:30;;;;;;;11.70;6.35;;;;;;;9.45;95.21;98893.16;5100181;28;20043;-96
2022/11/15 11:15:59;;;;;;;;;;;;;;;9.51;95.48;98930.22;5067624;28;20049;-96
2022/11/15 11:18:28;;;;;;;;;;;;;;;9.35;98.51;98921.69;5066181;28;19956;-94
2022/11/15 11:20:58;;;;;;;10.40;5.83;;;;;;;9.15;96.93;98884.03;5066214;28;19921;-93
2022/11/15 11:23:41;;;;;;;17.45;7.88;;;;;;;9.27;96.80;98905.03;5065468;28;20049;-94
2022/11/15 11:26:41;;;;;;;12.73;6.18;;;;;;;9.21;96.68;98878.63;5065928;28;20052;-96
2022/11/15 11:29:25;;;;;;;17.52;8.88;;;;;;;9.47;97.29;98896.66;5061642;28;20045;-96
2022/11/15 11:32:04;;;;;;;17.65;8.93;;;;;;;9.59;97.55;98895.56;5065994;28;20051;-96
2022/11/15 11:34:58;;;;;;;17.88;8.85;;;;;;;9.46;97.21;98866.59;5099585;28;20033;-96
2022/11/15 11:37:41;;;;;;;16.30;10.00;;;;;;;9.51;97.93;98861.19;5068850;28;20049;-96
2022/11/15 11:40:29;;;;;;;16.83;8.75;;;;;;;9.42;98.50;98861.38;5101616;28;20067;-96
2022/11/15 11:43:04;;;;;;;11.82;6.95;;;;;;;9.39;98.80;98862.34;5065944;28;20041;-96
2022/11/15 11:46:09;;;;;;;11.55;6.75;;;;;;;9.44;99.53;98855.13;5067074;28;20051;-96
2022/11/15 11:48:42;;;;;;;11.13;7.15;;;;;;;9.51;98.02;98847.91;5009368;28;20510;-96
2022/11/15 11:51:22;;;;;;;13.93;7.97;;;;;;;9.57;98.70;98861.06;5009144;28;20042;-95
2022/11/15 11:53:54;;;;;;;16.48;8.55;;;;;;;9.55;100.00;98862.88;5007556;28;20049;-95
2022/11/15 11:56:26;;;;;;;13.40;7.57;;;;;;;9.49;100.00;98876.28;5007513;28;20053;-95
2022/11/15 11:58:55;;;;;;;14.60;8.82;;;;;;;9.31;100.00;98836.88;5009147;28;20046;-95
2022/11/15 12:01:27;;;;;;;15.40;8.63;;;;;;;9.36;100.00;98835.84;5009051;28;20080;-96
2022/11/15 12:03:56;;;;;;;14.32;8.45;;;;;;;9.35;100.00;98843.84;5008188;28;20042;-96
2022/11/15 12:06:40;;;;;;;17.08;9.52;;;;;;;9.47;100.00;98856.84;5007884;28;20050;-96
2022/11/15 12:09:15;;;;;;;19.15;11.15;;;;;;;9.31;100.00;98847.47;5008727;28;20519;-94
2022/11/15 12:11:50;;;;;;;13.13;7.80;;;;;;;9.27;100.00;98827.22;5007337;28;20448;-96
2022/11/15 12:14:26;;;;;;;12.63;7.30;;;;;;;9.36;100.00;98822.56;5008338;28;20046;-95
2022/11/15 12:16:54;;;;;;;12.82;7.45;;;;;;;9.28;100.00;98832.47;5005870;28;20057;-95
2022/11/15 12:19:20;;;;;;;14.20;7.35;;;;;;;9.04;100.00;98807.31;5004099;28;20052;-96
2022/11/15 12:21:52;;;;;;;12.93;7.57;;;;;;;9.08;100.00;98816.97;5004409;28;20133;-96
2022/11/15 12:24:23;;;;;;;22.45;11.43;;;;;;;9.06;100.00;98805.50;5011568;28;20149;-96
2022/11/15 12:26:52;;;;;;;18.60;10.32;;;;;;;9.09;100.00;98800.16;5064164;28;20073;-95